Malmstrom AFB, Montana
Current Conditions -  °F | °C
As of 6:56 AM on Friday 31 Oct 2014 (Local Time) from KGFA Reporting Station
Clear Clear  
Wind Chill: 31°   Ceiling: Unl
Heat Index: 35°   Visibility: 10mi
Dew Point: 33°   Wind: 5mph
Humidity: 92%   Direction: 30°NNE
Pressure: 29.86"   Gusts: NA
Location:  47.51°N, 111.19°W
Report Text: KGFA 311256Z AUTO 03004KT 10SM CLR 02/01 A2986 RMK AO2 SLP133 T00160005
Loading
Personal Weather Stations






























Interactive Weather Map
Tropical Storm Tracking
New forecast layout! Learn more

10-Day Weather Forecast

Advertisements
Track Severe Weather on mobile